• Join FlightAware (Why Join?)
  • Login
  • US Flag GB Flag 
21:08 EDT


 

Airport Tracker/Info


-or-


 

Live Flight TrackerFlight Track Log ✈ N498QS ✈ 20-Nov-2012 ✈ KBQK - KTEB

Flight Track Log - Related Links

Times and Time Zones

All times are in EST time to prevent confusion due to time zone crossing. See the N498QS flight status page for this flight to view local times or setup timezone preferences in your user account.

Time Position Orientation Groundspeed Altitude Reporting Facility
EST Latitude Longitude Course Direction KTS MPH feet Rate Location/Type
17:50 31.2833 -81.4267 14° North 322 371 2,900  Level Jacksonville Center
17:51 31.3497 -81.4061 15° North 234 269 5,000 2,880 Climbing Jacksonville Center
17:53 31.4914 -81.3675 13° North 285 328 11,600 3,120 Climbing Jacksonville Center
17:54 31.5975 -81.3414 12° North 341 392 14,500 2,700 Climbing Jacksonville Center
17:55 31.9799 -81.2367 14° North  Level FlightAware Approximate
17:55 31.6994 -81.3153 12° North 365 420 17,100  Level Jacksonville Center
17:56 31.7953 -81.2917 12° North 381 438 19,600 2,460 Climbing Jacksonville Center
17:57 31.9011 -81.2383 23° Northeast 398 458 22,100 2,100 Climbing Jacksonville Center
17:58 32.0108 -81.1653 29° Northeast 420 483 23,900 1,920 Climbing Jacksonville Center
17:59 32.1225 -81.0969 27° Northeast 433 498 26,000 2,040 Climbing Jacksonville Center
18:00 32.2508 -81.0133 29° Northeast 464 534 28,000 1,860 Climbing Jacksonville Center
18:01 32.3581 -80.9397 30° Northeast 486 559 29,800 1,860 Climbing Jacksonville Center
18:02 32.4822 -80.8558 30° Northeast 497 572 31,800 2,040 Climbing Jacksonville Center
18:03 32.6019 -80.7767 29° Northeast 497 572 33,900 2,100 Climbing Jacksonville Center
18:04 32.7236 -80.6950 29° Northeast 497 572 36,100 1,980 Climbing Jacksonville Center
18:05 32.8433 -80.6128 30° Northeast 497 572 37,900 1,620 Climbing Jacksonville Center
18:06 32.9628 -80.5356 28° Northeast 497 572 39,400 1,260 Climbing Jacksonville Center
18:07 33.0969 -80.4503 28° Northeast 497 572 40,500 780 Climbing Jacksonville Center
18:08 33.2225 -80.3625 30° Northeast 502 578 41,000 240 Climbing Jacksonville Center
18:09 33.3439 -80.2744 31° Northeast 502 578 41,000  Level Jacksonville Center
18:10 33.4672 -80.1911 29° Northeast 502 578 41,000  Level Jacksonville Center
18:11 33.5928 -80.1050 30° Northeast 502 578 41,000  Level Jacksonville Center
18:12 33.7161 -80.0186 30° Northeast 502 578 41,000  Level Jacksonville Center
18:13 33.8394 -79.9347 29° Northeast 502 578 41,000  Level Jacksonville Center
18:14 33.9622 -79.8453 31° Northeast 502 578 41,000  Level Jacksonville Center
18:15 34.0856 -79.7608 30° Northeast 502 578 41,000  Level Jacksonville Center
18:17 34.2608 -79.6675 24° Northeast 496 571 41,000  Level Washington Center
18:18 34.3972 -79.6517 North 485 558 41,000  Level Washington Center
18:19 34.5289 -79.6381 North 479 551 41,000  Level Washington Center
18:20 34.6711 -79.6325 North 474 545 41,000  Level Washington Center
18:21 34.8028 -79.6214 North 467 537 41,000  Level Washington Center
18:22 34.9325 -79.6150 North 467 537 41,000  Level Washington Center
18:23 35.0642 -79.6064 North 467 537 41,000  Level Washington Center
18:24 35.1947 -79.5747 11° North 462 532 41,000  Level Washington Center
18:25 35.3164 -79.4917 29° Northeast 478 550 41,000  Level Washington Center
18:26 35.4381 -79.4033 31° Northeast 488 562 41,000  Level Washington Center
18:27 35.5619 -79.3147 30° Northeast 515 593 41,000  Level Washington Center
18:28 35.6836 -79.2258 31° Northeast 510 587 41,000  Level Washington Center
18:29 35.8094 -79.1342 31° Northeast 510 587 41,000  Level Washington Center
18:30 35.9311 -79.0397 32° Northeast 510 587 41,000  Level Washington Center
18:31 36.0589 -78.9475 30° Northeast 510 587 41,000  Level Washington Center
18:32 36.1803 -78.8600 30° Northeast 510 587 41,000  Level Washington Center
18:33 36.3061 -78.7647 31° Northeast 510 587 41,000  Level Washington Center
18:34 36.4317 -78.6719 31° Northeast 515 593 41,000  Level Washington Center
18:35 36.5528 -78.5783 32° Northeast 521 600 41,000  Level Washington Center
18:36 36.6519 -78.4475 47° Northeast 513 590 41,000  Level Washington Center
18:37 36.6994 -78.2861 70° East 488 562 41,000  Level Washington Center
18:38 36.7469 -78.1192 70° East 488 562 41,000  Level Washington Center
18:39 36.7900 -77.9572 72° East 493 567 41,000  Level Washington Center
18:40 36.8778 -77.8378 47° Northeast 470 541 41,000  Level Washington Center
18:41 36.9989 -77.8361 North 396 456 41,000  Level Washington Center
18:42 37.1128 -77.8708 346° North 386 444 41,000  Level Washington Center
18:43 37.2292 -77.9028 348° North 398 458 41,000  Level Washington Center
18:44 37.3453 -77.9325 348° North 416 479 41,000  Level Washington Center
18:45 37.4667 -77.9100 North 422 486 41,000  Level Washington Center
18:46 37.5750 -77.8164 34° Northeast 421 484 41,000  Level Washington Center
18:47 37.6811 -77.7172 36° Northeast 440 506 41,000  Level Washington Center
18:48 37.7869 -77.6178 37° Northeast 462 532 41,000  Level Washington Center
18:49 37.8908 -77.5178 37° Northeast 467 537 41,000  Level Washington Center
18:50 37.9967 -77.4206 36° Northeast 467 537 41,000  Level Washington Center
18:51 38.0875 -77.3331 37° Northeast 467 537 41,000  Level Washington Center
18:52 38.2019 -77.2194 38° Northeast 467 537 41,000  Level Washington Center
18:53 38.3053 -77.1183 38° Northeast 467 537 41,000  Level Washington Center
18:54 38.4086 -77.0172 37° Northeast 467 537 41,000 -780 Level Washington Center
18:55 38.5142 -76.9158 37° Northeast 467 537 39,500 -2,100 Descending Washington Center
18:56 38.6217 -76.8061 39° Northeast 474 545 36,900 720 Descending Washington Center
18:57 38.7228 -76.7011 39° Northeast 474 545 41,000 -2,580 Climbing Washington Center
18:58 38.8278 -76.5989 37° Northeast 468 539 31,900 -5,880 Descending Washington Center
18:59 38.9244 -76.5014 38° Northeast 462 532 29,500 -2,460 Descending Washington Center
19:00 39.0231 -76.4011 38° Northeast 457 526 27,000 -2,460 Descending Washington Center
19:01 39.1258 -76.2981 38° Northeast 457 526 24,500 -1,560 Descending Washington Center
19:02 39.2119 -76.2078 39° Northeast 431 496 24,000 -300 Descending Washington Center
19:03 39.2872 -76.1333 37° Northeast 395 455 24,000 -600 Level Washington Center
19:04 39.3958 -76.0128 41° Northeast 380 437 22,700 -1,140 Descending FAA TRACON SMA TRACON (SMA)
19:04 39.4150 -75.9800 53° Northeast 368 423 22,300 -1,380 Descending FAA TRACON SMA TRACON (SMA)
19:05 39.4314 -75.9508 54° Northeast 371 427 21,800 -1,800 Descending FAA TRACON SMA TRACON (SMA)
19:05 39.4539 -75.9078 56° Northeast 363 418 21,100 -1,800 Descending FAA TRACON SMA TRACON (SMA)
19:05 39.4719 -75.8725 56° Northeast 362 417 20,600 -1,800 Descending FAA TRACON SMA TRACON (SMA)
19:06 39.4883 -75.8408 56° Northeast 362 417 19,900 -1,980 Descending FAA TRACON SMA TRACON (SMA)
19:06 39.5075 -75.8028 57° Northeast 362 417 19,300 -1,800 Descending FAA TRACON SMA TRACON (SMA)
19:06 39.5272 -75.7642 56° Northeast 360 414 18,700 -1,500 Descending FAA TRACON SMA TRACON (SMA)
19:07 39.5394 -75.7400 57° Northeast 357 411 18,300 -1,680 Descending FAA TRACON SMA TRACON (SMA)
19:07 39.5642 -75.6917 56° Northeast 350 403 17,600 -1,980 Descending FAA TRACON SMA TRACON (SMA)
19:07 39.5819 -75.6650 49° Northeast 341 392 17,000 -1,800 Descending FAA TRACON SMA TRACON (SMA)
19:08 39.6081 -75.6461 29° Northeast 343 395 16,400 -2,100 Descending FAA TRACON SMA TRACON (SMA)
19:08 39.6425 -75.6369 12° North 327 376 15,600 -1,980 Descending FAA TRACON SMA TRACON (SMA)
19:08 39.6703 -75.6311 North 326 375 15,100 -1,500 Descending FAA TRACON SMA TRACON (SMA)
19:09 39.6967 -75.6256 North 320 368 14,600 -1,800 Descending FAA TRACON SMA TRACON (SMA)
19:09 39.7300 -75.6189 North 313 360 13,900 -1,860 Descending FAA TRACON SMA TRACON (SMA)
19:09 39.7558 -75.6133 North 308 354 13,400 -1,380 Descending FAA TRACON SMA TRACON (SMA)
19:10 39.7800 -75.6042 16° North 298 343 13,000 -480 Descending FAA TRACON SMA TRACON (SMA)
19:10 39.8103 -75.5858 25° Northeast 314 361 13,100 120 Climbing FAA TRACON SMA TRACON (SMA)
19:10 39.8328 -75.5664 34° Northeast 318 366 13,100  Level FAA TRACON SMA TRACON (SMA)
19:11 39.8531 -75.5472 36° Northeast 313 360 13,100  Level FAA TRACON SMA TRACON (SMA)
19:11 39.8822 -75.5208 35° Northeast 313 360 13,100 -180 Level FAA TRACON SMA TRACON (SMA)
19:11 39.8983 -75.5050 37° Northeast 313 360 13,000  Descending FAA TRACON SMA TRACON (SMA)
19:12 39.9253 -75.4797 36° Northeast 309 356 13,100  Climbing FAA TRACON SMA TRACON (SMA)
19:12 39.9461 -75.4606 35° Northeast 307 353 13,000 -180 Descending FAA TRACON SMA TRACON (SMA)
19:12 39.9731 -75.4358 35° Northeast 306 352 13,000  Level FAA TRACON SMA TRACON (SMA)
19:13 39.9953 -75.4147 36° Northeast 308 354 13,000  Level FAA TRACON SMA TRACON (SMA)
19:13 40.0211 -75.3908 35° Northeast 308 354 13,000  Level FAA TRACON SMA TRACON (SMA)
19:13 40.0439 -75.3694 36° Northeast 310 357 13,000  Level FAA TRACON SMA TRACON (SMA)
19:14 40.0656 -75.3494 35° Northeast 309 356 13,000  Level FAA TRACON SMA TRACON (SMA)
19:14 40.0875 -75.3292 35° Northeast 310 357 13,000  Level FAA TRACON SMA TRACON (SMA)
19:14 40.1144 -75.3044 35° Northeast 310 357 13,000  Level FAA TRACON SMA TRACON (SMA)
19:15 40.1364 -75.2833 36° Northeast 313 360 13,000  Level FAA TRACON SMA TRACON (SMA)
19:15 40.1583 -75.2631 35° Northeast 313 360 13,000 -180 Level FAA TRACON SMA TRACON (SMA)
19:15 40.1850 -75.2381 36° Northeast 315 362 12,900 -1,440 Descending FAA TRACON SMA TRACON (SMA)
19:16 40.2081 -75.2164 36° Northeast 319 367 12,100 -1,980 Descending FAA TRACON SMA TRACON (SMA)
19:16 40.2306 -75.1950 36° Northeast 322 371 11,600 -1,800 Descending FAA TRACON SMA TRACON (SMA)
19:16 40.2578 -75.1697 35° Northeast 321 369 10,900 -1,800 Descending FAA TRACON SMA TRACON (SMA)
19:17 40.2803 -75.1492 35° Northeast 313 360 10,400 -1,680 Descending FAA TRACON SMA TRACON (SMA)
19:17 40.3011 -75.1297 35° Northeast 303 349 9,800 -1,980 Descending FAA TRACON SMA TRACON (SMA)
19:17 40.3256 -75.1042 39° Northeast 302 348 9,100 -1,800 Descending FAA TRACON SMA TRACON (SMA)
19:18 40.3436 -75.0808 45° Northeast 289 333 8,600 -1,500 Descending FAA TRACON SMA TRACON (SMA)
19:18 40.3594 -75.0575 48° Northeast 290 334 8,100 -1,500 Descending FAA TRACON SMA TRACON (SMA)
19:18 40.3769 -75.0331 47° Northeast 286 329 7,600 -1,500 Descending FAA TRACON SMA TRACON (SMA)
19:19 40.3975 -75.0042 47° Northeast 283 326 7,100 -1,080 Descending FAA TRACON SMA TRACON (SMA)
19:19 40.4122 -74.9806 51° Northeast 274 315 6,900 -1,080 Descending FAA TRACON SMA TRACON (SMA)
19:19 40.4217 -74.9517 67° East 281 323 6,400 -1,800 Descending FAA TRACON SMA TRACON (SMA)
19:20 40.4328 -74.9172 67° East 268 308 5,700 -1,800 Descending FAA TRACON SMA TRACON (SMA)
19:20 40.4431 -74.8869 66° East 280 322 5,200 -1,200 Descending FAA TRACON SMA TRACON (SMA)
19:20 40.4506 -74.8650 66° East 282 325 4,900 -1,380 Descending FAA TRACON SMA TRACON (SMA)
19:21 40.4642 -74.8236 67° East 274 315 4,300 -1,500 Descending FAA TRACON SMA TRACON (SMA)
19:21 40.4733 -74.7972 65° Northeast 253 291 3,900 -1,080 Descending FAA TRACON SMA TRACON (SMA)
19:21 40.4819 -74.7708 67° East 254 292 3,600 -1,200 Descending FAA TRACON SMA TRACON (SMA)
19:22 40.4928 -74.7389 66° East 250 288 3,100 -780 Descending FAA TRACON SMA TRACON (SMA)
19:22 40.4936 -74.7350 74° East 250 288 3,100 -120 Level FAA TRACON SMA TRACON (SMA)
19:23 40.5167 -74.6500 70° East 249 287 3,000 -60 Descending New York TRACON
19:24 40.5500 -74.5667 62° Northeast 243 280 3,000  Level New York TRACON
19:25 40.5833 -74.4833 62° Northeast 227 261 3,000  Level New York TRACON
19:26 40.6000 -74.4167 72° East 218 251 3,000  Level New York TRACON
19:27 40.6500 -74.3667 37° Northeast 232 267 3,000 -540 Level New York TRACON
19:28 40.6833 -74.3000 57° Northeast 220 253 2,000 -600 Descending New York TRACON
19:29 40.7333 -74.2500 37° Northeast 211 243 1,900 -240 Descending New York TRACON
19:30 40.7667 -74.2000 49° Northeast 179 206 1,600 -240 Descending New York TRACON
19:31 40.8000 -74.1500 49° Northeast 174 200 1,500 -420 Descending New York TRACON
19:32 40.8167 -74.1000 66° East 138 159 800 -720 Descending New York TRACON